createdAt,value
2019-05-25T00:01:19.019Z,101470.80
2019-05-25T00:04:27.649Z,101468.22
2019-05-25T00:07:37.359Z,101472.25
2019-05-25T00:10:47.092Z,101477.68
2019-05-25T00:13:55.760Z,101470.11
2019-05-25T00:17:04.389Z,101477.03
2019-05-25T00:20:13.038Z,101473.86
2019-05-25T00:23:31.831Z,101478.52
2019-05-25T00:26:40.540Z,101483.95
2019-05-25T00:29:49.229Z,101487.81
2019-05-25T00:32:57.885Z,101486.86
2019-05-25T00:36:06.785Z,101488.54
2019-05-25T00:39:16.748Z,101484.52
2019-05-25T00:42:25.261Z,101480.08
2019-05-25T00:45:33.926Z,101479.14
2019-05-25T00:48:52.720Z,101470.39
2019-05-25T00:52:01.351Z,101478.63
2019-05-25T00:55:10.489Z,101482.13
2019-05-25T00:58:19.062Z,101476.89
2019-05-25T01:01:27.738Z,101481.75
2019-05-25T01:04:36.372Z,101485.69
2019-05-25T01:07:44.994Z,101491.96
2019-05-25T01:10:53.643Z,101492.85
2019-05-25T01:14:02.302Z,101494.34
2019-05-25T01:17:10.953Z,101493.45
2019-05-25T01:20:21.025Z,101493.31
2019-05-25T01:23:40.036Z,101494.67
2019-05-25T01:26:50.473Z,101496.34
2019-05-25T01:29:59.021Z,101488.02
2019-05-25T01:33:09.098Z,101490.33
2019-05-25T01:36:17.777Z,101492.93
2019-05-25T01:39:26.349Z,101488.34
2019-05-25T01:42:34.963Z,101486.98
2019-05-25T01:45:53.806Z,101491.63
2019-05-25T01:49:03.947Z,101490.27
2019-05-25T01:52:12.469Z,101486.36
2019-05-25T01:55:21.285Z,101491.47
2019-05-25T01:58:29.900Z,101493.87
2019-05-25T02:01:38.624Z,101488.75
2019-05-25T02:05:05.079Z,101492.63
2019-05-25T02:08:24.009Z,101487.36
2019-05-25T02:11:32.667Z,101491.23
2019-05-25T02:14:41.485Z,101486.50
2019-05-25T02:17:50.208Z,101489.36
2019-05-25T02:21:09.717Z,101486.70
2019-05-25T02:24:29.007Z,101491.43
2019-05-25T02:27:37.666Z,101487.41
2019-05-25T02:30:46.670Z,101483.47
2019-05-25T02:33:55.288Z,101480.48
2019-05-25T02:37:03.919Z,101488.23
2019-05-25T02:40:13.760Z,101491.65
2019-05-25T02:43:22.353Z,101493.33
2019-05-25T02:46:31.091Z,101489.78
2019-05-25T02:49:49.910Z,101488.09
2019-05-25T02:52:58.536Z,101494.45
2019-05-25T02:56:07.190Z,101502.45
2019-05-25T02:59:16.812Z,101497.50
2019-05-25T03:02:35.679Z,101499.24
2019-05-25T03:05:44.363Z,101503.88
2019-05-25T03:08:54.673Z,101500.98
2019-05-25T03:12:03.727Z,101501.81
2019-05-25T03:15:13.269Z,101506.08
2019-05-25T03:18:20.601Z,101504.61
2019-05-25T03:21:29.473Z,101506.97
2019-05-25T03:24:38.086Z,101508.91
2019-05-25T03:27:46.754Z,101508.00
2019-05-25T03:30:55.401Z,101506.44
2019-05-25T03:34:14.164Z,101505.21
2019-05-25T03:37:22.798Z,101507.08
2019-05-25T03:40:31.510Z,101507.92
2019-05-25T03:43:40.052Z,101513.35
2019-05-25T03:46:48.738Z,101517.89
2019-05-25T03:49:57.349Z,101516.86
2019-05-25T03:53:05.993Z,101523.12
2019-05-25T03:56:14.635Z,101523.97
2019-05-25T03:59:33.447Z,101518.70
2019-05-25T04:02:42.025Z,101523.88
2019-05-25T04:05:50.948Z,101522.77
2019-05-25T04:08:59.606Z,101530.14
2019-05-25T04:12:08.590Z,101529.04
2019-05-25T04:15:16.105Z,101532.30
2019-05-25T04:18:24.668Z,101528.02
2019-05-25T04:21:33.234Z,101530.91
2019-05-25T04:24:41.877Z,101537.98
2019-05-25T04:27:50.591Z,101537.72
2019-05-25T04:30:59.217Z,101539.63
2019-05-25T04:34:07.869Z,101539.52
2019-05-25T04:37:16.526Z,101531.90
2019-05-25T04:40:25.224Z,101543.92
2019-05-25T04:43:44.029Z,101543.10
2019-05-25T04:46:52.687Z,101549.81
2019-05-25T04:50:01.310Z,101551.83
2019-05-25T04:53:10.023Z,101552.45
2019-05-25T04:56:18.696Z,101555.17
2019-05-25T04:59:27.409Z,101549.63
2019-05-25T05:02:36.047Z,101551.57
2019-05-25T05:05:44.992Z,101549.81
2019-05-25T05:08:53.586Z,101551.55
2019-05-25T05:12:02.093Z,101560.08
2019-05-25T05:15:21.788Z,101553.66
2019-05-25T05:18:31.939Z,101556.55
2019-05-25T05:21:41.110Z,101558.75
2019-05-25T05:24:49.685Z,101566.26
2019-05-25T05:27:58.301Z,101559.98
2019-05-25T05:31:23.892Z,101559.11
2019-05-25T05:34:32.591Z,101564.64
2019-05-25T05:37:43.070Z,101568.73
2019-05-25T05:40:56.152Z,101567.69
2019-05-25T05:44:16.886Z,101565.69
2019-05-25T05:47:26.029Z,101569.47
2019-05-25T05:50:46.236Z,101563.91
2019-05-25T05:53:57.983Z,101567.66
2019-05-25T05:57:12.473Z,101568.31
2019-05-25T06:00:18.213Z,101578.52
2019-05-25T06:03:36.967Z,101581.76
2019-05-25T06:06:45.504Z,101581.81
2019-05-25T06:09:54.107Z,101579.70
2019-05-25T06:13:02.823Z,101582.27
2019-05-25T06:16:11.451Z,101582.52
2019-05-25T06:19:20.071Z,101585.38
2019-05-25T06:22:28.599Z,101595.20
2019-05-25T06:25:47.456Z,101597.22
2019-05-25T06:28:56.130Z,101604.57
2019-05-25T06:32:06.480Z,101599.87
2019-05-25T06:35:15.673Z,101599.33
2019-05-25T06:38:24.160Z,101604.90
2019-05-25T06:41:32.781Z,101602.78
2019-05-25T06:44:41.408Z,101604.66
2019-05-25T06:47:50.026Z,101607.05
2019-05-25T06:50:58.634Z,101617.31
2019-05-25T06:54:07.130Z,101615.11
2019-05-25T06:57:25.941Z,101620.82
2019-05-25T07:00:34.581Z,101612.98
2019-05-25T07:03:43.180Z,101611.96
2019-05-25T07:19:25.031Z,101615.86
2019-05-25T07:22:33.651Z,101617.50
2019-05-25T07:25:42.193Z,101618.69
2019-05-25T07:28:50.726Z,101620.56
2019-05-25T07:32:00.421Z,101617.98
2019-05-25T07:35:09.469Z,101626.17
2019-05-25T07:38:28.285Z,101626.63
2019-05-25T07:41:36.821Z,101626.40
2019-05-25T07:44:45.311Z,101631.52
2019-05-25T07:47:53.845Z,101630.72
2019-05-25T07:51:02.378Z,101641.67
2019-05-25T07:54:22.955Z,101626.97
2019-05-25T07:57:31.756Z,101630.67
2019-05-25T08:00:40.331Z,101636.41
2019-05-25T08:03:49.129Z,101642.47
2019-05-25T08:06:57.748Z,101642.52
2019-05-25T08:10:07.362Z,101635.81
2019-05-25T08:13:26.105Z,101640.44
2019-05-25T08:16:34.764Z,101640.05
2019-05-25T08:19:43.385Z,101653.68
2019-05-25T08:22:51.942Z,101645.27
2019-05-25T08:26:00.494Z,101646.43
2019-05-25T08:29:09.075Z,101650.48
2019-05-25T08:32:27.937Z,101646.80
2019-05-25T08:35:36.642Z,101658.92
2019-05-25T08:38:45.379Z,101661.52
2019-05-25T08:41:54.018Z,101663.43
2019-05-25T08:45:02.608Z,101674.88
2019-05-25T08:48:11.288Z,101676.69
2019-05-25T08:51:19.824Z,101685.27
2019-05-25T08:54:28.339Z,101690.55
2019-05-25T08:57:47.129Z,101681.70
2019-05-25T09:00:55.692Z,101689.68
2019-05-25T09:04:03.381Z,101682.52
2019-05-25T09:07:12.010Z,101686.28
2019-05-25T09:10:20.844Z,101692.05
2019-05-25T09:13:29.438Z,101693.86
2019-05-25T09:16:38.024Z,101694.80
2019-05-25T09:19:46.684Z,101699.62
2019-05-25T09:22:55.389Z,101706.56
2019-05-25T09:26:04.111Z,101699.88
2019-05-25T09:29:13.086Z,101705.91
2019-05-25T09:32:21.644Z,101707.46
2019-05-25T09:35:30.297Z,101709.02
2019-05-25T09:38:43.161Z,101707.50
2019-05-25T09:41:50.343Z,101706.53
2019-05-25T09:44:59.078Z,101706.39
2019-05-25T09:48:07.754Z,101707.91
2019-05-25T09:51:16.386Z,101708.03
2019-05-25T09:54:25.090Z,101712.63
2019-05-25T09:57:35.149Z,101713.48
2019-05-25T10:00:43.965Z,101708.55
2019-05-25T10:03:52.648Z,101694.09
2019-05-25T10:07:01.306Z,101696.04
2019-05-25T10:10:10.148Z,101704.07
2019-05-25T10:13:28.849Z,101708.63
2019-05-25T10:16:37.772Z,101699.81
2019-05-25T10:19:46.597Z,101696.80
2019-05-25T10:22:55.235Z,101697.34
2019-05-25T10:26:03.977Z,101696.81
2019-05-25T10:29:12.527Z,101702.54
2019-05-25T10:32:21.257Z,101699.17
2019-05-25T10:35:29.917Z,101705.55
2019-05-25T10:38:38.582Z,101704.91
2019-05-25T10:41:46.907Z,101707.52
2019-05-25T10:45:16.755Z,101696.61
2019-05-25T10:48:26.160Z,101701.02
2019-05-25T10:51:34.739Z,101704.02
2019-05-25T10:54:43.609Z,101701.91
2019-05-25T10:58:02.835Z,101693.89
2019-05-25T11:01:11.491Z,101698.59
2019-05-25T11:04:19.563Z,101697.56
2019-05-25T11:07:29.312Z,101699.45
2019-05-25T11:10:48.488Z,101694.42
2019-05-25T11:13:57.225Z,101701.97
2019-05-25T11:17:05.985Z,101705.41
2019-05-25T11:20:18.358Z,101711.88
2019-05-25T11:23:26.961Z,101710.52
2019-05-25T11:26:35.651Z,101707.55
2019-05-25T11:29:44.279Z,101704.63
2019-05-25T11:32:52.833Z,101709.09
2019-05-25T11:36:01.371Z,101709.62
2019-05-25T11:39:10.109Z,101710.16
2019-05-25T11:42:19.977Z,101703.34
2019-05-25T11:45:39.427Z,101693.77
2019-05-25T11:48:58.297Z,101701.94
2019-05-25T11:52:07.431Z,101706.55
2019-05-25T11:55:26.386Z,101701.17
2019-05-25T11:58:47.102Z,101703.30
2019-05-25T12:01:48.952Z,101702.89
2019-05-25T12:04:57.606Z,101699.73
2019-05-25T12:08:06.371Z,101696.05
2019-05-25T12:11:16.954Z,101692.18
2019-05-25T12:14:25.522Z,101694.77
2019-05-25T12:17:34.268Z,101693.89
2019-05-25T12:20:42.901Z,101696.48
2019-05-25T12:23:51.724Z,101694.52
2019-05-25T12:27:00.350Z,101698.97
2019-05-25T12:30:11.009Z,101694.20
2019-05-25T12:33:19.547Z,101701.45
2019-05-25T12:36:26.850Z,101700.49
2019-05-25T12:39:37.300Z,101694.09
2019-05-25T12:42:47.230Z,101692.63
2019-05-25T12:45:56.571Z,101699.13
2019-05-25T12:49:05.270Z,101696.88
2019-05-25T12:52:13.867Z,101692.13
2019-05-25T12:55:22.789Z,101691.93
2019-05-25T12:58:31.446Z,101695.78
2019-05-25T13:01:40.081Z,101702.47
2019-05-25T13:04:48.743Z,101701.86
2019-05-25T13:07:57.423Z,101703.44
2019-05-25T13:11:09.403Z,101707.55
2019-05-25T13:14:26.571Z,101709.33
2019-05-25T13:17:35.296Z,101720.45
2019-05-25T13:20:43.957Z,101715.20
2019-05-25T13:23:52.661Z,101723.69
2019-05-25T13:27:00.962Z,101726.72
2019-05-25T13:30:09.994Z,101727.41
2019-05-25T13:33:18.640Z,101730.45
2019-05-25T13:36:27.438Z,101738.63
2019-05-25T13:39:36.377Z,101740.87
2019-05-25T13:42:45.421Z,101745.05
2019-05-25T13:45:54.152Z,101745.05
2019-05-25T13:49:02.767Z,101743.33
2019-05-25T13:52:11.662Z,101742.72
2019-05-25T13:55:20.941Z,101737.35
2019-05-25T13:58:29.795Z,101735.14
2019-05-25T14:01:38.428Z,101743.56
2019-05-25T14:04:47.071Z,101741.59
2019-05-25T14:07:55.690Z,101741.07
2019-05-25T14:11:04.557Z,101741.73
2019-05-25T14:14:13.077Z,101743.53
2019-05-25T14:17:23.034Z,101740.05
2019-05-25T14:20:41.861Z,101744.06
2019-05-25T14:23:50.591Z,101747.21
2019-05-25T14:26:59.244Z,101747.36
2019-05-25T14:30:09.565Z,101739.83
2019-05-25T14:33:18.193Z,101748.38
2019-05-25T14:36:26.843Z,101747.17
2019-05-25T14:39:35.470Z,101739.58
2019-05-25T14:42:44.138Z,101739.90
2019-05-25T14:45:53.618Z,101743.02
2019-05-25T14:49:02.223Z,101743.47
2019-05-25T14:52:12.880Z,101744.81
2019-05-25T14:55:21.528Z,101741.37
2019-05-25T14:58:30.136Z,101750.92
2019-05-25T15:01:39.150Z,101752.16
2019-05-25T15:04:47.769Z,101752.43
2019-05-25T15:07:56.469Z,101743.50
2019-05-25T15:11:05.050Z,101742.27
2019-05-25T15:14:13.781Z,101743.61
2019-05-25T15:17:22.448Z,101747.74
2019-05-25T15:20:30.629Z,101751.59
2019-05-25T15:23:39.184Z,101741.39
2019-05-25T15:26:50.114Z,101739.28
2019-05-25T15:29:58.643Z,101741.06
2019-05-25T15:33:07.215Z,101738.86
2019-05-25T15:36:15.734Z,101743.56
2019-05-25T15:39:24.333Z,101742.66
2019-05-25T15:42:32.861Z,101740.12
2019-05-25T15:45:51.878Z,101740.84
2019-05-25T15:49:00.524Z,101743.92
2019-05-25T15:52:09.074Z,101741.06
2019-05-25T15:55:18.034Z,101746.28
2019-05-25T15:58:26.736Z,101731.34
2019-05-25T16:01:35.258Z,101735.45
2019-05-25T16:04:43.838Z,101725.67
2019-05-25T16:07:53.506Z,101730.58
2019-05-25T16:11:02.081Z,101736.94
2019-05-25T16:14:10.695Z,101738.97
2019-05-25T16:17:19.213Z,101734.09
2019-05-25T16:20:27.826Z,101739.29
2019-05-25T16:23:36.484Z,101742.31
2019-05-25T16:26:46.509Z,101738.57
2019-05-25T16:30:06.458Z,101733.12
2019-05-25T16:33:15.214Z,101741.59
2019-05-25T16:36:23.782Z,101743.42
2019-05-25T16:39:42.582Z,101738.97
2019-05-25T16:42:50.724Z,101728.50
2019-05-25T16:45:57.966Z,101737.12
2019-05-25T16:49:06.692Z,101727.38
2019-05-25T16:52:15.315Z,101735.22
2019-05-25T16:55:23.855Z,101732.77
2019-05-25T16:58:42.665Z,101732.51
2019-05-25T17:01:51.200Z,101730.66
2019-05-25T17:04:59.827Z,101730.62
2019-05-25T17:08:08.353Z,101727.06
2019-05-25T17:11:16.881Z,101728.33
2019-05-25T17:14:35.661Z,101714.53
2019-05-25T17:17:43.258Z,101715.56
2019-05-25T17:21:02.182Z,101715.40
2019-05-25T17:24:10.848Z,101717.18
2019-05-25T17:27:19.381Z,101716.14
2019-05-25T17:30:47.441Z,101714.01
2019-05-25T17:33:56.268Z,101721.17
2019-05-25T17:37:04.836Z,101714.33
2019-05-25T17:40:14.086Z,101713.00
2019-05-25T17:43:22.651Z,101714.74
2019-05-25T17:46:31.364Z,101714.59
2019-05-25T17:49:40.012Z,101713.27
2019-05-25T17:52:48.536Z,101718.50
2019-05-25T17:55:57.076Z,101719.82
2019-05-25T17:59:15.885Z,101711.56
2019-05-25T18:02:24.508Z,101712.09
2019-05-25T18:05:33.144Z,101718.95
2019-05-25T18:08:41.706Z,101716.30
2019-05-25T18:11:50.361Z,101716.88
2019-05-25T18:14:59.016Z,101718.69
2019-05-25T18:18:08.249Z,101714.44
2019-05-25T18:21:16.814Z,101726.30
2019-05-25T18:24:25.377Z,101728.73
2019-05-25T18:27:34.190Z,101718.86
2019-05-25T18:30:42.852Z,101727.16
2019-05-25T18:33:51.478Z,101733.17
2019-05-25T18:37:10.469Z,101726.05
2019-05-25T18:40:19.502Z,101727.73
2019-05-25T18:43:38.432Z,101727.22
2019-05-25T18:46:48.536Z,101727.41
2019-05-25T18:49:57.393Z,101722.39
2019-05-25T18:53:06.356Z,101720.18
2019-05-25T18:56:15.086Z,101714.08
2019-05-25T18:59:23.793Z,101716.09
2019-05-25T19:02:32.455Z,101722.70
2019-05-25T19:05:43.720Z,101725.48
2019-05-25T19:09:02.602Z,101726.84
2019-05-25T19:12:11.368Z,101736.52
2019-05-25T19:15:20.999Z,101732.45
2019-05-25T19:18:29.674Z,101734.91
2019-05-25T19:21:38.320Z,101739.33
2019-05-25T19:25:03.058Z,101743.15
2019-05-25T19:28:11.691Z,101743.89
2019-05-25T19:31:20.287Z,101744.55
2019-05-25T19:34:28.839Z,101749.86
2019-05-25T19:37:42.219Z,101749.31
2019-05-25T19:40:49.099Z,101744.94
2019-05-25T19:43:56.402Z,101749.31
2019-05-25T19:47:15.187Z,101748.75
2019-05-25T19:50:25.310Z,101750.48
2019-05-25T19:53:33.928Z,101754.81
2019-05-25T19:56:42.468Z,101743.36
2019-05-25T19:59:51.135Z,101745.05
2019-05-25T20:02:59.788Z,101746.09
2019-05-25T20:06:19.503Z,101750.97
2019-05-25T20:09:28.093Z,101745.50
2019-05-25T20:12:36.750Z,101751.77
2019-05-25T20:15:45.369Z,101746.56
2019-05-25T20:18:53.968Z,101751.52
2019-05-25T20:22:02.575Z,101742.67
2019-05-25T20:25:12.758Z,101742.67
2019-05-25T20:28:31.602Z,101741.94
2019-05-25T20:31:41.317Z,101743.44
2019-05-25T20:34:50.012Z,101738.86
2019-05-25T20:37:58.530Z,101731.66
2019-05-25T20:41:17.274Z,101729.89
2019-05-25T20:44:25.844Z,101731.95
2019-05-25T20:47:34.368Z,101732.70
2019-05-25T20:50:43.118Z,101738.45
2019-05-25T20:53:51.673Z,101728.87
2019-05-25T20:56:58.705Z,101732.77
2019-05-25T21:00:08.475Z,101732.73
2019-05-25T21:03:17.087Z,101728.28
2019-05-25T21:06:25.622Z,101723.36
2019-05-25T21:09:34.184Z,101718.73
2019-05-25T21:12:42.762Z,101718.77
2019-05-25T21:16:01.540Z,101722.98
2019-05-25T21:19:10.232Z,101722.09
2019-05-25T21:22:18.791Z,101722.94
2019-05-25T21:25:27.339Z,101721.58
2019-05-25T21:28:36.139Z,101719.38
2019-05-25T21:31:46.079Z,101712.45
2019-05-25T21:35:24.177Z,101705.58
2019-05-25T21:38:32.791Z,101707.03
2019-05-25T21:41:41.324Z,101707.75
2019-05-25T21:44:49.976Z,101706.79
2019-05-25T21:47:58.512Z,101705.28
2019-05-25T21:51:07.035Z,101710.01
2019-05-25T21:54:25.906Z,101711.52
2019-05-25T21:57:34.700Z,101711.03
2019-05-25T22:00:43.446Z,101705.79
2019-05-25T22:03:51.958Z,101702.27
2019-05-25T22:07:00.488Z,101704.67
2019-05-25T22:10:09.500Z,101698.41
2019-05-25T22:13:27.865Z,101695.70
2019-05-25T22:16:28.356Z,101688.48
2019-05-25T22:19:36.969Z,101687.80
2019-05-25T22:22:45.628Z,101689.16
2019-05-25T22:26:04.391Z,101684.34
2019-05-25T22:29:13.056Z,101685.42
2019-05-25T22:32:21.694Z,101682.05
2019-05-25T22:35:31.672Z,101688.84
2019-05-25T22:38:40.388Z,101682.25
2019-05-25T22:41:49.032Z,101673.42
2019-05-25T22:44:57.724Z,101671.73
2019-05-25T22:48:16.601Z,101667.64
2019-05-25T22:51:25.208Z,101666.65
2019-05-25T22:54:33.860Z,101665.20
2019-05-25T22:57:42.533Z,101658.45
2019-05-25T23:00:51.235Z,101659.31
2019-05-25T23:04:00.472Z,101654.64
2019-05-25T23:07:09.409Z,101651.27
2019-05-25T23:10:18.483Z,101655.52
2019-05-25T23:13:37.431Z,101654.31
2019-05-25T23:16:46.058Z,101654.34
2019-05-25T23:19:54.914Z,101658.13
2019-05-25T23:23:03.714Z,101659.48
2019-05-25T23:26:12.434Z,101654.47
2019-05-25T23:29:21.401Z,101646.16
2019-05-25T23:32:31.630Z,101636.02
2019-05-25T23:35:40.144Z,101646.72
2019-05-25T23:38:48.902Z,101633.05
2019-05-25T23:41:57.516Z,101637.63
2019-05-25T23:45:06.951Z,101625.47
2019-05-25T23:48:15.602Z,101624.84
2019-05-25T23:51:24.225Z,101627.39
2019-05-25T23:54:32.860Z,101622.99
2019-05-25T23:57:41.481Z,101612.16
